createdAt,value
2022-10-20T00:00:12.547Z,55.20
2022-10-20T00:02:41.028Z,52.90
2022-10-20T00:05:10.610Z,47.20
2022-10-20T00:07:39.640Z,61.08
2022-10-20T00:10:09.358Z,64.32
2022-10-20T00:12:38.189Z,71.45
2022-10-20T00:15:09.454Z,73.68
2022-10-20T00:17:38.108Z,68.40
2022-10-20T00:20:08.116Z,69.68
2022-10-20T00:22:36.757Z,68.55
2022-10-20T00:25:06.394Z,59.60
2022-10-20T00:27:35.390Z,70.63
2022-10-20T00:30:04.611Z,58.63
2022-10-20T00:32:34.704Z,73.03
2022-10-20T00:35:03.465Z,64.90
2022-10-20T00:37:32.870Z,62.15
2022-10-20T00:40:01.358Z,74.80
2022-10-20T00:42:29.864Z,69.93
2022-10-20T00:45:01.261Z,62.95
2022-10-20T00:50:29.202Z,67.88
2022-10-20T00:52:58.264Z,64.97
2022-10-20T00:55:31.233Z,68.95
2022-10-20T00:58:03.101Z,67.07
2022-10-20T01:00:32.997Z,56.83
2022-10-20T01:03:04.233Z,78.78
2022-10-20T01:05:34.134Z,67.82
2022-10-20T01:08:03.067Z,63.85
2022-10-20T01:10:41.749Z,71.35
2022-10-20T01:13:18.524Z,77.45
2022-10-20T01:15:57.727Z,64.78
2022-10-20T01:18:33.260Z,74.70
2022-10-20T01:21:24.005Z,66.30
2022-10-20T01:24:04.011Z,74.35
2022-10-20T01:27:02.929Z,72.18
2022-10-20T01:29:37.723Z,58.20
2022-10-20T01:32:14.841Z,70.85
2022-10-20T01:34:52.936Z,66.82
2022-10-20T01:37:34.356Z,74.75
2022-10-20T01:40:27.870Z,83.68
2022-10-20T01:43:00.109Z,69.40
2022-10-20T01:45:33.793Z,83.00
2022-10-20T01:48:07.163Z,71.00
2022-10-20T01:50:37.117Z,70.93
2022-10-20T01:53:06.273Z,68.68
2022-10-20T01:55:35.896Z,74.43
2022-10-20T01:58:52.365Z,70.32
2022-10-20T02:01:32.388Z,62.10
2022-10-20T02:04:04.372Z,81.22
2022-10-20T02:06:43.113Z,64.30
2022-10-20T02:09:19.402Z,73.93
2022-10-20T02:11:54.360Z,69.10
2022-10-20T02:14:25.050Z,74.45
2022-10-20T02:16:59.651Z,79.25
2022-10-20T02:19:33.013Z,82.43
2022-10-20T02:22:02.660Z,66.25
2022-10-20T02:24:37.150Z,70.85
2022-10-20T02:27:14.111Z,86.05
2022-10-20T02:29:50.455Z,76.03
2022-10-20T02:32:21.596Z,84.97
2022-10-20T02:34:50.160Z,80.28
2022-10-20T02:37:18.926Z,74.38
2022-10-20T02:39:47.437Z,75.28
2022-10-20T02:42:17.387Z,77.13
2022-10-20T02:44:45.993Z,87.47
2022-10-20T02:47:14.774Z,78.82
2022-10-20T02:49:44.783Z,87.03
2022-10-20T02:52:13.196Z,78.35
2022-10-20T02:54:42.265Z,78.50
2022-10-20T02:57:10.676Z,86.68
2022-10-20T02:59:39.345Z,80.25
2022-10-20T03:02:07.691Z,93.65
2022-10-20T03:04:36.090Z,81.32
2022-10-20T03:07:06.116Z,86.85
2022-10-20T03:09:34.431Z,94.75
2022-10-20T03:12:03.069Z,89.72
2022-10-20T03:14:31.457Z,91.45
2022-10-20T03:16:59.722Z,89.78
2022-10-20T03:19:28.176Z,89.43
2022-10-20T03:21:56.843Z,87.25
2022-10-20T03:24:26.890Z,89.43
2022-10-20T03:26:55.684Z,87.70
2022-10-20T03:29:24.364Z,96.28
2022-10-20T03:31:52.643Z,88.65
2022-10-20T03:34:21.704Z,85.50
2022-10-20T03:36:50.335Z,101.15
2022-10-20T03:39:18.594Z,98.50
2022-10-20T03:41:48.477Z,90.50
2022-10-20T03:44:16.941Z,91.47
2022-10-20T03:46:45.357Z,94.40
2022-10-20T03:49:14.001Z,105.82
2022-10-20T03:51:42.441Z,101.47
2022-10-20T03:54:10.900Z,96.65
2022-10-20T03:56:40.768Z,109.28
2022-10-20T03:59:12.261Z,111.13
2022-10-20T04:01:46.259Z,96.90
2022-10-20T04:04:15.310Z,113.13
2022-10-20T04:06:43.628Z,113.32
2022-10-20T04:09:12.159Z,121.22
2022-10-20T04:11:40.702Z,109.55
2022-10-20T04:14:10.630Z,103.38
2022-10-20T04:16:39.064Z,110.10
2022-10-20T04:19:07.592Z,110.50
2022-10-20T04:21:36.038Z,96.22
2022-10-20T04:24:05.635Z,110.15
2022-10-20T04:26:34.559Z,86.50
2022-10-20T04:29:03.940Z,91.03
2022-10-20T04:31:34.363Z,96.95
2022-10-20T04:34:03.077Z,79.63
2022-10-20T04:36:31.528Z,79.50
2022-10-20T04:38:59.959Z,59.90
2022-10-20T04:41:28.828Z,87.28
2022-10-20T04:43:57.422Z,70.38
2022-10-20T04:46:26.954Z,64.53
2022-10-20T04:48:56.911Z,77.38
2022-10-20T04:51:25.653Z,66.05
2022-10-20T04:53:54.514Z,66.97
2022-10-20T04:56:24.663Z,65.15
2022-10-20T04:58:55.215Z,83.70
2022-10-20T05:01:25.835Z,71.38
2022-10-20T05:03:54.311Z,75.35
2022-10-20T05:06:25.168Z,86.40
2022-10-20T05:08:58.346Z,82.80
2022-10-20T05:11:29.452Z,87.57
2022-10-20T05:13:58.334Z,88.22
2022-10-20T05:16:27.350Z,86.43
2022-10-20T05:18:57.736Z,81.97
2022-10-20T05:21:30.010Z,87.68
2022-10-20T05:24:00.896Z,94.63
2022-10-20T05:26:34.512Z,80.47
2022-10-20T05:29:05.015Z,54.35
2022-10-20T05:31:33.588Z,51.85
2022-10-20T05:34:02.269Z,56.03
2022-10-20T05:36:32.208Z,44.47
2022-10-20T05:39:00.930Z,50.88
2022-10-20T05:41:33.401Z,55.10
2022-10-20T05:44:09.064Z,48.38
2022-10-20T05:46:41.845Z,59.05
2022-10-20T05:49:14.513Z,46.05
2022-10-20T05:51:46.101Z,54.70
2022-10-20T05:54:15.966Z,62.67
2022-10-20T05:56:44.639Z,58.20
2022-10-20T05:59:14.393Z,58.92
2022-10-20T06:01:49.384Z,51.15
2022-10-20T06:04:24.405Z,58.80
2022-10-20T06:06:55.525Z,52.22
2022-10-20T06:09:25.839Z,43.95
2022-10-20T06:11:54.829Z,45.72
2022-10-20T06:14:23.865Z,46.13
2022-10-20T06:16:53.981Z,55.60
2022-10-20T06:19:23.067Z,56.35
2022-10-20T06:21:52.389Z,39.78
2022-10-20T06:24:23.224Z,42.47
2022-10-20T06:26:52.143Z,61.67
2022-10-20T06:29:20.752Z,53.97
2022-10-20T06:31:51.283Z,50.08
2022-10-20T06:34:22.870Z,59.47
2022-10-20T06:36:52.082Z,47.67
2022-10-20T06:39:23.583Z,49.65
2022-10-20T06:41:53.523Z,43.55
2022-10-20T06:44:23.682Z,45.30
2022-10-20T06:47:10.480Z,51.30
2022-10-20T07:19:01.345Z,45.42
2022-10-20T07:21:36.508Z,46.53
2022-10-20T07:24:09.663Z,52.53
2022-10-20T07:26:50.075Z,48.33
2022-10-20T07:29:29.175Z,57.50
2022-10-20T07:32:07.070Z,45.47
2022-10-20T07:34:36.974Z,45.60
2022-10-20T07:37:32.128Z,48.40
2022-10-20T07:40:09.958Z,55.17
2022-10-20T07:43:22.097Z,49.65
2022-10-20T07:46:29.655Z,50.28
2022-10-20T07:49:42.838Z,56.40
2022-10-20T07:52:31.750Z,46.00
2022-10-20T07:58:44.320Z,69.03
2022-10-20T08:01:48.318Z,53.70
2022-10-20T08:04:22.826Z,54.60
2022-10-20T08:07:08.168Z,59.97
2022-10-20T08:10:02.867Z,49.97
2022-10-20T08:13:17.275Z,66.95
2022-10-20T08:19:27.446Z,65.18
2022-10-20T08:22:31.938Z,85.47
2022-10-20T08:25:41.511Z,73.85
2022-10-20T08:28:36.551Z,71.95
2022-10-20T08:31:10.053Z,70.88
2022-10-20T08:33:40.211Z,73.45
2022-10-20T08:36:11.376Z,74.60
2022-10-20T08:38:43.881Z,43.90
2022-10-20T08:41:20.029Z,52.25
2022-10-20T08:43:53.814Z,61.45
2022-10-20T08:46:31.266Z,57.60
2022-10-20T08:49:00.950Z,55.25
2022-10-20T08:51:33.370Z,61.33
2022-10-20T08:54:05.191Z,59.78
2022-10-20T08:56:36.498Z,60.80
2022-10-20T08:59:26.640Z,68.38
2022-10-20T09:02:02.445Z,64.55
2022-10-20T09:04:39.069Z,64.18
2022-10-20T09:07:23.146Z,71.90
2022-10-20T09:09:52.175Z,66.13
2022-10-20T09:12:31.146Z,64.40
2022-10-20T09:15:07.311Z,65.68
2022-10-20T09:17:44.991Z,75.70
2022-10-20T09:20:20.769Z,63.60
2022-10-20T09:22:50.938Z,68.60
2022-10-20T09:25:25.698Z,67.28
2022-10-20T09:28:03.342Z,53.53
2022-10-20T09:30:45.883Z,57.25
2022-10-20T09:33:30.402Z,52.47
2022-10-20T09:36:13.964Z,43.20
2022-10-20T09:38:45.513Z,46.22
2022-10-20T09:41:24.074Z,50.65
2022-10-20T09:43:58.044Z,42.72
2022-10-20T09:46:31.868Z,43.30
2022-10-20T09:49:02.013Z,38.25
2022-10-20T09:51:33.125Z,38.70
2022-10-20T09:54:07.133Z,41.97
2022-10-20T09:56:39.231Z,30.23
2022-10-20T09:59:10.768Z,43.08
2022-10-20T10:01:55.896Z,35.60
2022-10-20T10:04:35.572Z,32.08
2022-10-20T10:07:08.648Z,36.35
2022-10-20T10:09:40.043Z,28.95
2022-10-20T10:12:20.417Z,36.80
2022-10-20T10:14:53.931Z,33.40
2022-10-20T10:17:34.548Z,27.48
2022-10-20T10:20:31.208Z,33.85
2022-10-20T10:23:21.834Z,35.67
2022-10-20T10:25:53.012Z,32.45
2022-10-20T10:32:21.263Z,34.63
2022-10-20T11:05:28.867Z,37.53
2022-10-20T11:08:10.418Z,31.20
2022-10-20T11:11:17.849Z,39.78
2022-10-20T11:13:57.940Z,30.80
2022-10-20T11:20:26.554Z,26.50
2022-10-20T11:23:41.670Z,28.60
2022-10-20T11:56:24.792Z,45.67
2022-10-20T12:14:18.841Z,42.72
2022-10-20T12:17:37.775Z,37.08
2022-10-20T12:24:50.510Z,34.03
2022-10-20T12:27:34.457Z,36.22
2022-10-20T12:30:40.101Z,41.15
2022-10-20T12:33:43.815Z,29.90
2022-10-20T12:36:52.136Z,38.15
2022-10-20T12:39:34.999Z,37.63
2022-10-20T12:45:49.431Z,46.05
2022-10-20T12:48:33.066Z,35.83
2022-10-20T12:51:32.697Z,44.65
2022-10-20T12:54:30.413Z,49.42
2022-10-20T12:57:09.952Z,50.75
2022-10-20T13:00:11.958Z,44.33
2022-10-20T13:02:55.791Z,43.55
2022-10-20T13:05:51.201Z,47.47
2022-10-20T13:08:39.235Z,42.05
2022-10-20T13:11:42.581Z,45.38
2022-10-20T13:14:51.005Z,42.15
2022-10-20T13:17:46.717Z,43.35
2022-10-20T13:20:28.093Z,39.15
2022-10-20T13:23:01.697Z,40.88
2022-10-20T13:25:48.351Z,44.15
2022-10-20T13:28:24.301Z,41.85
2022-10-20T13:31:24.082Z,40.90
2022-10-20T13:34:14.043Z,46.60
2022-10-20T13:37:03.846Z,47.22
2022-10-20T13:39:45.530Z,42.60
2022-10-20T13:42:43.096Z,36.92
2022-10-20T13:45:23.074Z,37.53
2022-10-20T13:47:57.870Z,35.97
2022-10-20T13:50:33.320Z,42.90
2022-10-20T13:53:06.505Z,36.00
2022-10-20T13:55:59.177Z,36.38
2022-10-20T13:58:28.968Z,27.55
2022-10-20T14:01:01.602Z,29.30
2022-10-20T14:03:31.983Z,34.35
2022-10-20T14:06:01.597Z,38.88
2022-10-20T14:08:35.023Z,38.90
2022-10-20T14:11:11.641Z,36.70
2022-10-20T14:13:49.174Z,37.55
2022-10-20T14:16:29.904Z,38.05
2022-10-20T14:19:09.572Z,32.58
2022-10-20T14:21:45.961Z,42.72
2022-10-20T14:24:28.487Z,40.00
2022-10-20T14:27:01.610Z,38.17
2022-10-20T14:29:33.536Z,41.70
2022-10-20T14:32:13.786Z,43.60
2022-10-20T14:35:08.059Z,43.00
2022-10-20T14:37:43.942Z,36.35
2022-10-20T14:40:23.930Z,46.65
2022-10-20T14:43:01.856Z,43.60
2022-10-20T14:45:34.657Z,32.60
2022-10-20T14:48:16.144Z,34.72
2022-10-20T14:50:47.579Z,36.33
2022-10-20T14:53:34.532Z,32.50
2022-10-20T14:56:09.553Z,39.70
2022-10-20T14:58:59.169Z,32.75
2022-10-20T15:31:18.115Z,41.78
2022-10-20T15:43:10.473Z,34.65
2022-10-20T15:45:48.678Z,42.17
2022-10-20T15:48:26.336Z,38.42
2022-10-20T15:51:58.107Z,34.47
2022-10-20T15:58:01.401Z,40.67
2022-10-20T16:00:31.066Z,32.47
2022-10-20T16:03:00.903Z,36.72
2022-10-20T16:05:29.902Z,37.85
2022-10-20T16:07:58.476Z,55.92
2022-10-20T16:10:30.310Z,37.33
2022-10-20T16:13:01.001Z,44.00
2022-10-20T16:15:31.281Z,39.38
2022-10-20T16:18:01.847Z,44.70
2022-10-20T16:20:32.027Z,39.20
2022-10-20T16:23:00.462Z,39.58
2022-10-20T16:25:29.013Z,46.83
2022-10-20T16:27:57.580Z,37.30
2022-10-20T16:30:27.308Z,37.35
2022-10-20T16:32:56.109Z,38.33
2022-10-20T16:35:27.483Z,41.53
2022-10-20T16:38:01.532Z,37.38
2022-10-20T16:40:30.357Z,39.08
2022-10-20T16:43:00.991Z,37.03
2022-10-20T16:45:31.430Z,40.83
2022-10-20T16:48:00.151Z,36.38
2022-10-20T16:50:28.725Z,37.28
2022-10-20T16:52:58.616Z,39.63
2022-10-20T16:55:27.489Z,40.75
2022-10-20T16:57:56.168Z,41.25
2022-10-20T17:00:24.687Z,33.72
2022-10-20T17:02:57.947Z,38.17
2022-10-20T17:05:27.025Z,41.78
2022-10-20T17:07:58.770Z,40.58
2022-10-20T17:10:27.984Z,30.70
2022-10-20T17:12:58.125Z,35.97
2022-10-20T17:15:26.743Z,40.95
2022-10-20T17:17:56.858Z,40.60
2022-10-20T17:20:29.737Z,31.33
2022-10-20T17:23:05.637Z,42.88
2022-10-20T17:25:38.063Z,33.40
2022-10-20T17:28:07.491Z,30.35
2022-10-20T17:30:36.207Z,31.73
2022-10-20T17:33:07.234Z,34.13
2022-10-20T17:35:36.241Z,35.83
2022-10-20T17:38:05.335Z,33.60
2022-10-20T17:40:38.548Z,29.88
2022-10-20T17:43:07.328Z,33.78
2022-10-20T17:45:38.889Z,38.30
2022-10-20T17:48:13.684Z,38.72
2022-10-20T17:50:42.389Z,37.28
2022-10-20T17:53:11.109Z,34.85
2022-10-20T17:55:39.473Z,33.75
2022-10-20T17:58:08.351Z,29.83
2022-10-20T18:00:55.385Z,32.53
2022-10-20T18:03:27.043Z,30.63
2022-10-20T18:05:55.461Z,42.75
2022-10-20T18:08:24.247Z,37.03
2022-10-20T18:10:55.823Z,41.03
2022-10-20T18:13:24.227Z,46.67
2022-10-20T18:15:52.585Z,38.70
2022-10-20T18:18:21.331Z,37.00
2022-10-20T18:20:58.083Z,45.75
2022-10-20T18:23:28.014Z,38.33
2022-10-20T18:25:57.158Z,41.20
2022-10-20T18:28:25.995Z,43.05
2022-10-20T18:30:55.195Z,45.35
2022-10-20T18:33:23.888Z,40.85
2022-10-20T18:35:52.579Z,50.30
2022-10-20T18:38:23.215Z,50.90
2022-10-20T18:40:51.716Z,52.63
2022-10-20T18:43:20.158Z,57.92
2022-10-20T18:45:52.721Z,56.13
2022-10-20T18:48:21.435Z,52.13
2022-10-20T18:50:56.842Z,46.83
2022-10-20T18:53:27.845Z,43.60
2022-10-20T18:56:03.829Z,50.42
2022-10-20T18:58:35.466Z,52.38
2022-10-20T19:01:06.491Z,46.05
2022-10-20T19:03:36.325Z,51.45
2022-10-20T19:06:08.585Z,51.45
2022-10-20T19:08:40.436Z,52.08
2022-10-20T19:11:11.254Z,51.95
2022-10-20T19:13:40.087Z,61.60
2022-10-20T19:16:10.567Z,58.45
2022-10-20T19:18:41.030Z,51.47
2022-10-20T19:21:11.574Z,49.90
2022-10-20T19:23:44.646Z,53.95
2022-10-20T19:26:15.168Z,52.05
2022-10-20T19:28:46.812Z,58.45
2022-10-20T19:31:21.661Z,55.72
2022-10-20T19:33:52.077Z,56.95
2022-10-20T19:36:21.652Z,46.83
2022-10-20T19:38:52.032Z,55.08
2022-10-20T19:41:21.159Z,47.47
2022-10-20T19:43:50.019Z,43.95
2022-10-20T19:46:20.562Z,50.63
2022-10-20T19:48:50.164Z,55.83
2022-10-20T19:51:20.743Z,55.78
2022-10-20T19:53:52.969Z,48.45
2022-10-20T19:56:21.701Z,49.33
2022-10-20T19:58:50.440Z,57.70
2022-10-20T20:01:19.904Z,52.53
2022-10-20T20:03:49.232Z,49.08
2022-10-20T20:06:20.196Z,61.45
2022-10-20T20:08:53.086Z,60.20
2022-10-20T20:11:30.552Z,62.85
2022-10-20T20:14:01.307Z,52.58
2022-10-20T20:16:32.154Z,53.45
2022-10-20T20:19:02.766Z,59.63
2022-10-20T20:21:32.213Z,59.95
2022-10-20T20:24:05.305Z,67.07
2022-10-20T20:26:36.554Z,66.47
2022-10-20T20:29:06.514Z,61.88
2022-10-20T20:31:35.587Z,51.78
2022-10-20T20:34:04.255Z,58.45
2022-10-20T20:36:32.919Z,54.35
2022-10-20T20:39:03.641Z,63.63
2022-10-20T20:41:32.494Z,59.47
2022-10-20T20:44:05.450Z,50.83
2022-10-20T20:46:36.984Z,50.15
2022-10-20T20:49:06.275Z,47.75
2022-10-20T20:51:34.846Z,45.33
2022-10-20T20:54:05.426Z,48.20
2022-10-20T20:56:34.115Z,67.18
2022-10-20T20:59:02.585Z,41.20
2022-10-20T21:01:32.885Z,51.80
2022-10-20T21:04:03.410Z,53.47
2022-10-20T21:06:49.320Z,68.10
2022-10-20T21:09:24.066Z,56.78
2022-10-20T21:11:52.842Z,54.55
2022-10-20T21:14:21.594Z,54.22
2022-10-20T21:16:50.334Z,57.65
2022-10-20T21:19:18.917Z,59.33
2022-10-20T21:21:50.961Z,52.58
2022-10-20T21:24:19.853Z,55.97
2022-10-20T21:26:50.075Z,63.70
2022-10-20T21:29:19.738Z,63.67
2022-10-20T21:31:48.411Z,48.60
2022-10-20T21:34:17.365Z,64.22
2022-10-20T21:36:46.275Z,56.75
2022-10-20T21:39:16.965Z,67.82
2022-10-20T21:41:47.053Z,65.00
2022-10-20T21:44:17.269Z,60.22
2022-10-20T21:46:49.411Z,60.33
2022-10-20T21:49:19.821Z,60.40
2022-10-20T21:51:50.814Z,56.70
2022-10-20T21:56:57.000Z,52.22
2022-10-20T21:59:28.391Z,69.82
2022-10-20T22:01:59.102Z,54.78
2022-10-20T22:04:30.085Z,62.63
2022-10-20T22:06:59.793Z,56.92
2022-10-20T22:09:29.082Z,53.63
2022-10-20T22:11:58.935Z,54.13
2022-10-20T22:14:30.791Z,50.25
2022-10-20T22:16:59.543Z,48.60
2022-10-20T22:19:27.983Z,55.53
2022-10-20T22:24:26.211Z,52.20
2022-10-20T22:26:54.756Z,42.28
2022-10-20T22:29:24.556Z,56.67
2022-10-20T22:31:54.765Z,54.08
2022-10-20T22:34:23.286Z,52.55
2022-10-20T22:36:51.840Z,46.35
2022-10-20T22:39:20.534Z,43.22
2022-10-20T22:41:49.645Z,49.50
2022-10-20T22:44:18.127Z,50.65
2022-10-20T22:46:46.589Z,43.88
2022-10-20T22:49:16.946Z,48.00
2022-10-20T22:51:45.261Z,46.97
2022-10-20T22:54:13.768Z,52.35
2022-10-20T22:56:42.228Z,49.20
2022-10-20T22:59:11.016Z,43.03
2022-10-20T23:01:39.405Z,41.65
2022-10-20T23:04:09.983Z,38.00
2022-10-20T23:06:41.250Z,41.25
2022-10-20T23:09:09.784Z,44.55
2022-10-20T23:11:38.483Z,38.88
2022-10-20T23:14:07.705Z,44.47
2022-10-20T23:16:36.179Z,44.03
2022-10-20T23:19:17.074Z,54.30
2022-10-20T23:21:53.414Z,40.65
2022-10-20T23:24:22.034Z,41.72
2022-10-20T23:26:51.117Z,36.83
2022-10-20T23:29:19.673Z,43.55
2022-10-20T23:31:48.065Z,47.47
2022-10-20T23:34:16.370Z,45.50
2022-10-20T23:36:44.893Z,31.58
2022-10-20T23:39:15.663Z,41.75
2022-10-20T23:41:45.037Z,42.50
2022-10-20T23:44:14.581Z,35.72
2022-10-20T23:46:44.249Z,34.92
2022-10-20T23:49:12.844Z,29.92
2022-10-20T23:51:41.209Z,26.50
2022-10-20T23:54:09.566Z,33.33
2022-10-20T23:56:40.284Z,34.33
2022-10-20T23:59:09.066Z,35.38
